Time;durP1;ratioP1;P1;durP2;ratioP2;P2;SDS_P1;SDS_P2;PMS_P1;PMS_P2;Temp;Humidity;BMP_temperature;BMP_pressure;BME280_temperature;BME280_humidity;BME280_pressure;Samples;Min_cycle;Max_cycle;Signal;HPM_P1;HPM_P2
2021/11/28 00:02:13;;;;;;;5.50;3.47;;;;;;;0.32;74.41;94643.31;5034801;28;20117;-76
2021/11/28 00:04:42;;;;;;;4.47;3.33;;;;;;;0.27;74.49;94636.13;5034555;28;20067;-76
2021/11/28 00:07:21;;;;;;;4.07;3.10;;;;;;;0.26;74.49;94633.72;5034239;28;20046;-75
2021/11/28 00:09:58;;;;;;;5.32;3.53;;;;;;;0.26;74.73;94633.72;5034378;28;20058;-77
2021/11/28 00:12:39;;;;;;;4.68;3.83;;;;;;;0.25;74.71;94638.03;5034389;28;20060;-76
2021/11/28 00:15:07;;;;;;;4.95;3.70;;;;;;;0.26;74.76;94638.84;5034071;28;20049;-75
2021/11/28 00:17:37;;;;;;;5.30;4.10;;;;;;;0.25;74.69;94637.25;5034166;28;20052;-75
2021/11/28 00:20:08;;;;;;;4.57;3.67;;;;;;;0.19;74.67;94628.44;5034356;28;20057;-82
2021/11/28 00:22:38;;;;;;;6.57;4.10;;;;;;;0.14;74.39;94628.16;5033757;28;20049;-76
2021/11/28 00:25:07;;;;;;;6.55;4.60;;;;;;;0.11;74.74;94631.03;5033570;28;20041;-77
2021/11/28 00:27:37;;;;;;;6.20;3.83;;;;;;;0.07;75.11;94624.66;5033501;28;20542;-76
2021/11/28 00:30:06;;;;;;;5.88;3.75;;;;;;;0.05;74.94;94621.47;5034180;28;20064;-78
2021/11/28 00:32:33;;;;;;;5.68;4.45;;;;;;;0.03;74.68;94619.06;5033971;28;20054;-76
2021/11/28 00:35:01;;;;;;;5.60;4.05;;;;;;;0.03;74.98;94615.69;5034082;28;20045;-77
2021/11/28 00:37:29;;;;;;;6.40;4.25;;;;;;;0.03;75.32;94618.25;5033624;28;20053;-78
2021/11/28 00:39:56;;;;;;;5.93;4.28;;;;;;;0.07;75.43;94624.66;5033739;28;20061;-77
2021/11/28 00:42:24;;;;;;;7.18;4.00;;;;;;;0.08;75.21;94621.13;5033637;28;20042;-76
2021/11/28 00:44:53;;;;;;;6.10;4.15;;;;;;;0.10;75.36;94622.56;5033874;28;20057;-76
2021/11/28 00:47:20;;;;;;;4.93;3.58;;;;;;;0.14;75.17;94623.03;5033484;28;20049;-77
2021/11/28 00:50:03;;;;;;;6.93;4.00;;;;;;;0.17;75.36;94609.88;5033485;28;20049;-76
2021/11/28 00:52:32;;;;;;;4.45;3.20;;;;;;;0.24;75.35;94607.44;5033352;28;20053;-78
2021/11/28 00:55:00;;;;;;;8.55;4.35;;;;;;;0.30;74.96;94605.00;5033922;28;20058;-82
2021/11/28 00:57:28;;;;;;;8.85;4.60;;;;;;;0.37;75.01;94611.09;5033970;28;20053;-82
2021/11/28 01:00:00;;;;;;;5.00;3.90;;;;;;;0.40;74.75;94600.47;5034156;28;20538;-81
2021/11/28 01:02:28;;;;;;;6.68;4.38;;;;;;;0.40;74.51;94599.69;5034393;28;20049;-78
2021/11/28 01:04:56;;;;;;;6.03;4.10;;;;;;;0.37;74.59;94603.38;5034026;28;20136;-78
2021/11/28 01:07:26;;;;;;;5.35;4.20;;;;;;;0.34;74.48;94606.25;5033533;28;20056;-78
2021/11/28 01:09:54;;;;;;;6.22;4.30;;;;;;;0.35;74.66;94615.56;5033634;28;20060;-78
2021/11/28 01:12:22;;;;;;;5.70;3.92;;;;;;;0.37;74.57;94612.81;5033432;28;20041;-84
2021/11/28 01:14:50;;;;;;;6.57;3.45;;;;;;;0.32;74.23;94608.19;5033461;28;20052;-78
2021/11/28 01:17:20;;;;;;;6.38;3.90;;;;;;;0.29;74.27;94613.66;5033028;28;20061;-81
2021/11/28 01:19:48;;;;;;;4.60;3.35;;;;;;;0.27;74.55;94604.56;5034699;28;20049;-85
2021/11/28 01:22:16;;;;;;;5.20;3.70;;;;;;;0.25;74.65;94609.06;5033582;28;20056;-81
2021/11/28 01:24:44;;;;;;;5.18;3.97;;;;;;;0.24;74.78;94613.38;5034567;28;20045;-84
2021/11/28 01:27:15;;;;;;;6.45;4.13;;;;;;;0.25;74.74;94611.63;5034269;28;20077;-81
2021/11/28 01:29:43;;;;;;;5.50;4.55;;;;;;;0.25;74.87;94620.09;5033860;28;20053;-80
2021/11/28 01:32:12;;;;;;;8.63;5.10;;;;;;;0.25;74.86;94622.66;5034027;28;20060;-84
2021/11/28 01:34:41;;;;;;;5.45;3.72;;;;;;;0.25;74.77;94624.44;5034229;28;20077;-81
2021/11/28 01:37:09;;;;;;;4.78;3.67;;;;;;;0.23;74.61;94634.84;5031953;28;20049;-82
2021/11/28 01:39:36;;;;;;;5.45;3.85;;;;;;;0.19;74.61;94633.56;5033367;28;20057;-82
2021/11/28 01:42:05;;;;;;;5.38;3.83;;;;;;;0.18;74.81;94639.69;5032942;28;20072;-82
2021/11/28 01:44:32;;;;;;;6.15;4.15;;;;;;;0.18;74.72;94648.16;5033003;28;20042;-81
2021/11/28 01:47:01;;;;;;;7.55;3.75;;;;;;;0.19;74.93;94654.09;5033000;28;20423;-81
2021/11/28 01:49:28;;;;;;;5.03;3.30;;;;;;;0.20;74.82;94646.25;5032766;28;20057;-78
2021/11/28 01:51:57;;;;;;;6.85;3.78;;;;;;;0.25;75.16;94648.31;5032835;28;20079;-79
2021/11/28 01:54:25;;;;;;;4.82;2.95;;;;;;;0.31;74.76;94642.50;5032788;28;20046;-85
2021/11/28 01:56:53;;;;;;;5.32;2.90;;;;;;;0.38;74.61;94643.44;5032409;28;20053;-81
2021/11/28 01:59:21;;;;;;;3.97;2.75;;;;;;;0.46;74.29;94637.50;5032495;28;20053;-84
2021/11/28 02:01:49;;;;;;;3.47;2.50;;;;;;;0.52;74.34;94634.22;5032610;28;20065;-78
2021/11/28 02:04:19;;;;;;;4.57;2.90;;;;;;;0.57;73.66;94631.19;5032460;28;20049;-79
2021/11/28 02:06:48;;;;;;;4.57;2.40;;;;;;;0.61;73.78;94627.28;5033501;28;20057;-84
2021/11/28 02:09:18;;;;;;;5.45;2.92;;;;;;;0.64;73.54;94629.53;5032992;28;20046;-79
2021/11/28 02:11:46;;;;;;;5.10;2.88;;;;;;;0.62;73.13;94628.91;5032476;28;20054;-84
2021/11/28 02:14:14;;;;;;;5.00;2.65;;;;;;;0.64;73.19;94637.22;5032579;28;20045;-82
2021/11/28 02:16:42;;;;;;;3.97;2.85;;;;;;;0.65;73.27;94638.03;5032108;28;20045;-82
2021/11/28 02:19:09;;;;;;;6.25;3.10;;;;;;;0.67;73.21;94641.22;5034175;28;20053;-85
2021/11/28 02:21:38;;;;;;;3.85;2.97;;;;;;;0.71;73.55;94638.16;5043627;28;20515;-78
2021/11/28 02:24:06;;;;;;;4.43;3.30;;;;;;;0.73;73.34;94633.66;5043406;28;20045;-80
2021/11/28 02:26:34;;;;;;;4.72;3.70;;;;;;;0.77;73.86;94631.56;5041211;28;20054;-80
2021/11/28 02:29:01;;;;;;;5.43;3.10;;;;;;;0.81;73.52;94631.03;5035291;28;20054;-77
2021/11/28 02:31:29;;;;;;;5.50;3.40;;;;;;;0.84;73.32;94636.81;5034025;28;20049;-79
2021/11/28 02:33:57;;;;;;;6.53;3.65;;;;;;;0.86;73.41;94635.66;5034154;28;20041;-79
2021/11/28 02:36:24;;;;;;;5.32;4.35;;;;;;;0.90;73.27;94638.69;5032425;28;20426;-79
2021/11/28 02:38:53;;;;;;;5.32;4.13;;;;;;;0.95;73.17;94644.13;5032434;28;20054;-80
2021/11/28 02:41:21;;;;;;;3.97;2.88;;;;;;;1.01;73.46;94639.09;5032895;28;20053;-78
2021/11/28 02:43:49;;;;;;;6.60;3.35;;;;;;;1.02;72.74;94634.75;5032158;28;20050;-78
2021/11/28 02:46:17;;;;;;;6.32;3.22;;;;;;;0.99;72.74;94629.97;5032094;28;20057;-80
2021/11/28 02:48:45;;;;;;;5.95;3.33;;;;;;;0.99;72.87;94635.09;5035590;28;20053;-77
2021/11/28 02:51:13;;;;;;;5.55;3.38;;;;;;;0.99;72.51;94625.63;5035941;28;20057;-76
2021/11/28 02:53:40;;;;;;;8.15;2.88;;;;;;;1.00;72.48;94616.16;5035797;28;20057;-77
2021/11/28 02:56:09;;;;;;;3.55;2.97;;;;;;;1.00;72.78;94616.16;5035742;28;20430;-77
2021/11/28 02:58:38;;;;;;;5.70;3.35;;;;;;;1.03;72.55;94611.47;5036023;28;20049;-78
2021/11/28 03:01:09;;;;;;;5.15;3.00;;;;;;;1.06;72.50;94612.91;5035844;28;20060;-79
2021/11/28 03:03:37;;;;;;;4.90;3.38;;;;;;;1.06;72.47;94612.91;5035679;28;20046;-78
2021/11/28 03:06:05;;;;;;;5.72;2.95;;;;;;;1.06;72.34;94615.47;5035439;28;20061;-79
2021/11/28 03:08:33;;;;;;;5.45;3.35;;;;;;;1.09;72.52;94609.19;5035801;28;20400;-77
2021/11/28 03:11:01;;;;;;;4.45;3.03;;;;;;;1.13;72.05;94608.66;5035684;28;20058;-79
2021/11/28 03:13:34;;;;;;;4.90;2.85;;;;;;;1.15;72.51;94617.00;5035690;28;20056;-78
2021/11/28 03:16:05;;;;;;;4.15;2.88;;;;;;;1.21;72.54;94616.31;5035230;28;20054;-78
2021/11/28 03:18:34;;;;;;;6.25;3.22;;;;;;;1.24;71.93;94610.81;5035407;28;20050;-76
2021/11/28 03:21:06;;;;;;;7.85;4.93;;;;;;;1.30;72.53;94616.25;5035348;28;20049;-77
2021/11/28 03:23:36;;;;;;;7.78;3.85;;;;;;;1.36;72.25;94615.56;5035411;28;20053;-82
2021/11/28 03:26:09;;;;;;;6.15;3.60;;;;;;;1.41;72.50;94605.56;5035042;28;20045;-76
2021/11/28 03:28:38;;;;;;;;;;;;;;;1.48;71.75;94609.03;5035826;28;20053;-80
2021/11/28 03:31:05;;;;;;;3.13;2.50;;;;;;;1.47;71.85;94617.72;5056279;22;19928;-77
2021/11/28 03:33:37;;;;;;;5.13;3.47;;;;;;;1.44;71.55;94606.03;5035934;28;20045;-77
2021/11/28 03:36:05;;;;;;;7.97;3.67;;;;;;;1.42;71.54;94604.59;5035964;28;20289;-77
2021/11/28 03:38:35;;;;;;;5.32;3.17;;;;;;;1.41;71.59;94603.78;5035898;28;20045;-77
2021/11/28 03:41:03;;;;;;;9.00;4.97;;;;;;;1.40;71.50;94602.22;5035797;28;20064;-77
2021/11/28 03:43:30;;;;;;;8.30;4.93;;;;;;;1.41;71.16;94603.00;5035714;28;20046;-77
2021/11/28 03:45:59;;;;;;;7.25;4.30;;;;;;;1.39;71.35;94599.81;5035665;28;20429;-77
2021/11/28 03:48:28;;;;;;;5.63;4.43;;;;;;;1.37;71.44;94597.41;5035723;28;20071;-77
2021/11/28 03:50:55;;;;;;;4.45;3.40;;;;;;;1.35;71.23;94601.13;5036103;28;20053;-77
2021/11/28 03:53:23;;;;;;;9.10;3.65;;;;;;;1.34;71.34;94607.25;5035949;28;20064;-77
2021/11/28 03:55:52;;;;;;;7.00;3.90;;;;;;;1.32;71.74;94596.34;5035338;28;20132;-77
2021/11/28 03:58:20;;;;;;;5.97;3.60;;;;;;;1.33;71.42;94595.34;5035313;28;20534;-77
2021/11/28 04:00:48;;;;;;;6.25;3.47;;;;;;;1.32;71.60;94596.34;5035332;28;20045;-77
2021/11/28 04:03:17;;;;;;;4.13;3.28;;;;;;;1.31;71.77;94594.72;5034994;28;20076;-77
2021/11/28 04:05:44;;;;;;;5.90;3.60;;;;;;;1.32;71.66;94588.63;5035240;28;20057;-77
2021/11/28 04:08:12;;;;;;;5.65;3.47;;;;;;;1.35;71.59;94590.84;5035337;28;20052;-77
2021/11/28 04:10:39;;;;;;;4.70;4.20;;;;;;;1.37;71.77;94594.81;5034947;28;20053;-77
2021/11/28 04:13:08;;;;;;;5.38;3.65;;;;;;;1.38;71.71;94585.38;5034929;28;20057;-77
2021/11/28 04:15:35;;;;;;;6.40;4.03;;;;;;;1.37;71.36;94584.56;5035009;28;20049;-78
2021/11/28 04:18:03;;;;;;;6.20;3.85;;;;;;;1.35;71.73;94583.94;5034770;28;20136;-77
2021/11/28 04:20:32;;;;;;;5.88;3.58;;;;;;;1.33;71.94;94575.59;5035292;28;20053;-77
2021/11/28 04:23:00;;;;;;;5.80;3.08;;;;;;;1.34;71.96;94591.81;5035043;28;20052;-77
2021/11/28 04:25:28;;;;;;;7.35;3.83;;;;;;;1.35;71.88;94583.13;5034724;28;20663;-77
2021/11/28 04:27:55;;;;;;;5.85;3.55;;;;;;;1.36;71.92;94579.63;5034629;28;20066;-77
2021/11/28 04:30:25;;;;;;;5.65;3.58;;;;;;;1.33;72.23;94583.31;5034820;28;20046;-77
2021/11/28 04:32:53;;;;;;;7.00;3.33;;;;;;;1.36;72.16;94587.31;5034884;28;20056;-77
2021/11/28 04:35:22;;;;;;;4.72;3.80;;;;;;;1.34;72.27;94582.34;5034903;28;20049;-77
2021/11/28 04:37:51;;;;;;;6.20;3.85;;;;;;;1.32;72.12;94579.16;5034357;28;20451;-77
2021/11/28 04:40:19;;;;;;;6.07;4.13;;;;;;;1.29;72.11;94583.81;5035243;28;20053;-77
2021/11/28 04:42:46;;;;;;;6.72;3.80;;;;;;;1.27;72.39;94583.19;5034320;28;20053;-77
2021/11/28 04:45:15;;;;;;;6.03;4.30;;;;;;;1.27;72.40;94585.78;5034064;28;20050;-77
2021/11/28 04:47:42;;;;;;;6.13;4.07;;;;;;;1.24;72.02;94579.22;5034215;28;20053;-77
2021/11/28 04:50:12;;;;;;;7.13;4.13;;;;;;;1.22;72.04;94584.53;5034541;28;20399;-77
2021/11/28 04:52:40;;;;;;;6.18;4.10;;;;;;;1.19;72.20;94574.59;5056564;28;20033;-76
2021/11/28 04:55:11;;;;;;;4.72;3.47;;;;;;;1.17;72.45;94576.53;5056837;28;20053;-76
2021/11/28 04:57:40;;;;;;;6.65;4.05;;;;;;;1.16;72.28;94567.25;5043880;28;20046;-78
2021/11/28 05:00:10;;;;;;;5.13;3.40;;;;;;;1.15;72.51;94568.22;5035209;28;20045;-77
2021/11/28 05:02:39;;;;;;;5.35;3.40;;;;;;;1.16;72.37;94576.72;5034697;28;20057;-77
2021/11/28 05:05:08;;;;;;;6.30;4.03;;;;;;;1.16;72.48;94581.84;5050440;28;20045;-77
2021/11/28 05:07:35;;;;;;;6.38;3.90;;;;;;;1.19;72.42;94574.59;5056415;28;20509;-77
2021/11/28 05:10:04;;;;;;;9.43;5.22;;;;;;;1.21;72.41;94572.66;5034497;28;20045;-77
2021/11/28 05:12:33;;;;;;;7.07;4.15;;;;;;;1.24;72.13;94577.44;5032695;28;20285;-77
2021/11/28 05:15:01;;;;;;;7.07;3.72;;;;;;;1.27;72.40;94575.50;5032406;28;20049;-77
2021/11/28 05:17:28;;;;;;;5.38;4.03;;;;;;;1.31;72.51;94577.56;5032149;28;20057;-77
2021/11/28 05:19:57;;;;;;;5.25;3.28;;;;;;;1.37;72.69;94586.34;5034216;28;20466;-77
2021/11/28 05:22:26;;;;;;;5.63;3.63;;;;;;;1.42;72.77;94590.00;5034079;28;20060;-77
2021/11/28 05:24:53;;;;;;;7.78;3.85;;;;;;;1.42;72.38;94579.72;5034248;28;20050;-77
2021/11/28 05:27:21;;;;;;;6.03;3.42;;;;;;;1.43;72.09;94581.28;5033786;28;20522;-77
2021/11/28 05:29:50;;;;;;;5.75;3.58;;;;;;;1.45;72.79;94593.97;5034179;28;20530;-77
2021/11/28 05:32:18;;;;;;;6.97;3.50;;;;;;;1.47;72.62;94602.31;5033322;28;20064;-77
2021/11/28 05:34:46;;;;;;;7.43;3.83;;;;;;;1.51;72.74;94598.41;5034287;28;20056;-77
2021/11/28 05:37:15;;;;;;;6.30;3.92;;;;;;;1.54;72.50;94598.06;5033366;28;20049;-78
2021/11/28 05:39:43;;;;;;;8.05;3.88;;;;;;;1.58;72.30;94596.75;5034061;28;20045;-77
2021/11/28 05:42:11;;;;;;;6.80;3.78;;;;;;;1.65;73.04;94602.75;5033545;28;20052;-77
2021/11/28 05:44:39;;;;;;;6.88;3.67;;;;;;;1.70;72.25;94606.59;5033399;28;20068;-77
2021/11/28 05:47:08;;;;;;;11.75;7.05;;;;;;;1.69;72.16;94612.72;5056386;28;20036;-77
2021/11/28 05:49:35;;;;;;;8.40;4.75;;;;;;;1.67;71.88;94619.78;5057117;28;20041;-75
2021/11/28 05:52:04;;;;;;;6.25;4.53;;;;;;;1.61;71.85;94618.72;5038790;28;20415;-79
2021/11/28 05:54:31;;;;;;;7.13;4.75;;;;;;;1.58;71.76;94619.06;5026851;28;20042;-79
2021/11/28 05:56:59;;;;;;;7.72;4.85;;;;;;;1.60;72.48;94624.84;5033432;28;20039;-78
2021/11/28 05:59:27;;;;;;;8.60;5.15;;;;;;;1.65;72.23;94628.47;5036734;28;20048;-78
2021/11/28 06:01:55;;;;;;;11.32;5.97;;;;;;;1.63;72.14;94629.63;5022962;28;20053;-78
2021/11/28 06:04:24;;;;;;;14.82;6.63;;;;;;;1.57;72.16;94631.09;5033695;28;20517;-78
2021/11/28 06:06:57;;;;;;;10.50;5.85;;;;;;;1.54;72.27;94625.53;5033532;28;20743;-78
2021/11/28 06:09:24;;;;;;;5.72;4.20;;;;;;;1.52;71.95;94630.03;5033356;28;20053;-78
2021/11/28 06:11:52;;;;;;;7.53;4.57;;;;;;;1.50;72.03;94622.50;5017596;28;20049;-78
2021/11/28 06:14:19;;;;;;;9.88;5.97;;;;;;;1.49;72.17;94623.50;5013599;28;20049;-78
2021/11/28 06:16:47;;;;;;;8.88;5.07;;;;;;;1.49;72.43;94620.09;5012958;28;20431;-78
2021/11/28 06:19:14;;;;;;;7.43;4.60;;;;;;;1.50;72.47;94625.06;5013172;28;20050;-78
2021/11/28 06:21:43;;;;;;;9.05;5.35;;;;;;;1.52;72.28;94628.28;5013456;28;20053;-78
2021/11/28 06:24:11;;;;;;;7.43;5.30;;;;;;;1.55;72.01;94635.66;5025067;28;20061;-77
2021/11/28 06:26:38;;;;;;;7.88;4.85;;;;;;;1.56;72.28;94641.56;5038159;28;20042;-78
2021/11/28 06:29:06;;;;;;;6.88;4.95;;;;;;;1.54;72.11;94644.31;5056203;28;20060;-78
2021/11/28 06:31:34;;;;;;;7.78;4.88;;;;;;;1.54;72.26;94649.44;5051514;28;20059;-78
2021/11/28 06:34:01;;;;;;;7.20;4.57;;;;;;;1.50;71.82;94642.25;5037932;28;20469;-79
2021/11/28 06:36:29;;;;;;;4.00;3.20;;;;;;;1.51;72.33;94654.13;5037806;28;20061;-78
2021/11/28 06:38:58;;;;;;;4.57;3.38;;;;;;;1.53;72.83;94653.00;5037354;28;20053;-78
2021/11/28 06:41:26;;;;;;;4.43;3.38;;;;;;;1.59;73.67;94646.34;5037501;28;20306;-74
2021/11/28 06:43:54;;;;;;;8.75;4.90;;;;;;;1.63;72.99;94645.84;5037131;28;20622;-75
2021/11/28 06:46:21;;;;;;;9.90;5.57;;;;;;;1.60;72.21;94641.06;5036550;28;20741;-74
2021/11/28 06:48:49;;;;;;;9.85;6.22;;;;;;;1.55;72.24;94640.78;5036984;28;20057;-74
2021/11/28 06:51:17;;;;;;;9.77;6.32;;;;;;;1.52;72.11;94648.03;5045285;28;20517;-74
2021/11/28 06:53:44;;;;;;;10.18;6.40;;;;;;;1.50;72.45;94640.50;5058471;28;20055;-74
2021/11/28 06:56:15;;;;;;;12.27;6.43;;;;;;;1.53;72.64;94645.28;5058470;28;20056;-74
2021/11/28 06:58:42;;;;;;;5.93;4.07;;;;;;;1.59;72.21;94638.66;5052156;28;20049;-74
2021/11/28 07:01:10;;;;;;;5.90;4.35;;;;;;;1.67;72.61;94642.94;5036651;28;20426;-74
2021/11/28 07:03:38;;;;;;;3.78;3.10;;;;;;;1.67;72.19;94643.72;5016712;28;20050;-74
2021/11/28 07:06:06;;;;;;;6.28;3.65;;;;;;;1.69;71.99;94648.69;5016460;28;20042;-74
2021/11/28 07:08:34;;;;;;;4.95;3.28;;;;;;;1.67;72.00;94648.88;5016840;28;20053;-74
2021/11/28 07:11:02;;;;;;;5.47;3.78;;;;;;;1.67;72.29;94654.00;5016397;28;20053;-73
2021/11/28 07:13:31;;;;;;;6.07;4.15;;;;;;;1.66;72.47;94652.38;5016101;28;20054;-73
2021/11/28 07:15:58;;;;;;;6.05;4.00;;;;;;;1.65;72.20;94654.16;5016455;28;20045;-72
2021/11/28 07:18:27;;;;;;;4.78;3.60;;;;;;;1.63;72.45;94658.69;5016107;28;20510;-73
2021/11/28 07:20:54;;;;;;;4.88;3.30;;;;;;;1.61;72.42;94652.13;5016239;28;20049;-73
2021/11/28 07:23:22;;;;;;;6.22;3.47;;;;;;;1.60;72.60;94648.75;5016240;28;20050;-73
2021/11/28 07:25:50;;;;;;;4.68;3.22;;;;;;;1.63;72.72;94648.41;5015386;28;20092;-72
2021/11/28 07:28:17;;;;;;;3.65;2.70;;;;;;;1.70;72.73;94650.28;5015936;28;20061;-74
2021/11/28 07:30:49;;;;;;;5.13;3.33;;;;;;;1.77;73.06;94651.16;5017428;28;20522;-74
2021/11/28 07:33:17;;;;;;;3.90;2.80;;;;;;;1.83;73.00;94658.19;5015970;28;20054;-74
2021/11/28 07:35:45;;;;;;;4.85;3.15;;;;;;;1.91;73.39;94655.53;5015872;28;20280;-74
2021/11/28 07:38:13;;;;;;;5.70;3.35;;;;;;;1.95;73.06;94661.16;5029388;28;20056;-74
2021/11/28 07:40:40;;;;;;;5.40;3.63;;;;;;;1.99;73.13;94663.19;5036516;28;20053;-75
2021/11/28 07:43:08;;;;;;;8.15;4.30;;;;;;;2.05;72.90;94662.47;5035183;28;20050;-74
2021/11/28 07:45:36;;;;;;;6.85;4.78;;;;;;;2.10;73.22;94668.84;5035607;28;20057;-74
2021/11/28 07:48:06;;;;;;;11.52;6.05;;;;;;;2.15;73.50;94664.00;5035179;28;20046;-74
2021/11/28 07:50:33;;;;;;;23.48;13.63;;;;;;;2.16;72.55;94663.78;5035201;28;20056;-74
2021/11/28 07:53:01;;;;;;;19.02;11.10;;;;;;;2.16;72.84;94663.00;5034712;28;20424;-74
2021/11/28 07:55:28;;;;;;;11.48;6.90;;;;;;;2.18;72.74;94661.06;5034788;28;20060;-74
2021/11/28 07:57:56;;;;;;;10.55;6.47;;;;;;;2.16;72.25;94657.84;5034851;28;20091;-74
2021/11/28 08:00:23;;;;;;;6.80;4.75;;;;;;;2.13;72.16;94663.38;5034974;28;20049;-74
2021/11/28 08:02:51;;;;;;;6.90;4.38;;;;;;;2.16;72.54;94660.44;5034921;28;20050;-74
2021/11/28 08:05:21;;;;;;;8.00;5.05;;;;;;;2.18;72.20;94671.34;5035081;28;20053;-74
2021/11/28 08:07:48;;;;;;;6.85;4.68;;;;;;;2.19;72.23;94665.25;5034549;28;20050;-74
2021/11/28 08:10:16;;;;;;;7.45;5.18;;;;;;;2.15;71.80;94664.00;5034635;28;20049;-74
2021/11/28 08:12:43;;;;;;;10.73;5.68;;;;;;;2.10;71.88;94666.28;5035009;28;20053;-74
2021/11/28 08:15:15;;;;;;;7.85;5.78;;;;;;;2.08;71.59;94658.75;5035020;28;20057;-75
2021/11/28 08:17:43;;;;;;;10.93;7.20;;;;;;;2.08;71.41;94665.66;5017414;28;20082;-75
2021/11/28 08:20:11;;;;;;;9.02;7.15;;;;;;;2.00;71.40;94669.13;5015223;28;20054;-75
2021/11/28 08:22:40;;;;;;;9.82;6.53;;;;;;;1.94;72.05;94673.19;5014998;28;20435;-75
2021/11/28 08:25:10;;;;;;;13.43;7.82;;;;;;;1.95;72.43;94667.06;5014951;28;20258;-74
2021/11/28 08:27:38;;;;;;;13.45;8.82;;;;;;;1.98;72.05;94665.94;5014051;28;20181;-75
2021/11/28 08:30:11;;;;;;;14.50;8.52;;;;;;;2.03;71.83;94664.44;5014765;28;20061;-74
2021/11/28 08:32:39;;;;;;;9.55;6.72;;;;;;;2.08;71.75;94663.09;5014879;28;20054;-75
2021/11/28 08:35:07;;;;;;;9.82;6.07;;;;;;;2.09;71.50;94667.25;5014655;28;20046;-75
2021/11/28 08:37:36;;;;;;;9.35;6.47;;;;;;;2.09;72.19;94670.63;5014357;28;20491;-75
2021/11/28 08:40:06;;;;;;;7.97;5.97;;;;;;;2.16;72.56;94675.88;5014557;28;20046;-75
2021/11/28 08:42:34;;;;;;;11.82;7.47;;;;;;;2.22;72.87;94677.72;5014334;28;20065;-74
2021/11/28 08:45:03;;;;;;;9.52;6.20;;;;;;;2.28;72.83;94683.97;5016410;28;20446;-76
2021/11/28 08:47:31;;;;;;;9.32;6.20;;;;;;;2.34;73.27;94676.31;5034597;28;20514;-74
2021/11/28 08:49:59;;;;;;;9.80;6.43;;;;;;;2.40;73.25;94675.59;5034011;28;20168;-74
2021/11/28 08:52:26;;;;;;;6.85;5.28;;;;;;;2.47;73.52;94676.50;5034291;28;20422;-73
2021/11/28 08:54:54;;;;;;;8.50;5.22;;;;;;;2.51;72.65;94673.56;5034705;28;20057;-74
2021/11/28 08:57:23;;;;;;;9.52;6.07;;;;;;;2.51;72.37;94686.41;5034364;28;20057;-74
2021/11/28 08:59:50;;;;;;;9.35;7.15;;;;;;;2.53;72.00;94694.75;5057565;28;20117;-74
2021/11/28 09:02:19;;;;;;;8.85;6.32;;;;;;;2.57;72.16;94696.00;5048017;28;20032;-74
2021/11/28 09:04:46;;;;;;;12.98;7.22;;;;;;;2.61;72.37;94692.09;5017887;28;20057;-74
2021/11/28 09:07:14;;;;;;;8.93;6.20;;;;;;;2.62;71.99;94699.66;5014603;28;20380;-75
2021/11/28 09:09:41;;;;;;;7.40;5.68;;;;;;;2.68;72.55;94698.13;5021056;28;20046;-73
2021/11/28 09:12:09;;;;;;;9.35;6.80;;;;;;;2.74;72.09;94692.25;5037700;28;20050;-73
2021/11/28 09:14:38;;;;;;;10.63;6.30;;;;;;;2.79;71.32;94694.28;5021578;28;20062;-74
2021/11/28 09:17:05;;;;;;;7.85;6.07;;;;;;;2.84;71.39;94692.78;5013754;28;20057;-74
2021/11/28 09:19:41;;;;;;;7.32;5.30;;;;;;;2.94;71.90;94696.84;5014169;28;20062;-74
2021/11/28 09:22:11;;;;;;;11.10;6.75;;;;;;;3.02;71.55;94692.38;5017713;28;20056;-74
2021/11/28 09:24:38;;;;;;;7.70;5.65;;;;;;;3.11;72.30;94694.84;5014068;28;20053;-74
2021/11/28 09:27:09;;;;;;;7.45;5.32;;;;;;;3.20;71.04;94696.34;5015165;28;20520;-74
2021/11/28 09:29:41;;;;;;;10.60;7.07;;;;;;;3.28;71.52;94693.66;5015433;28;20073;-74
2021/11/28 09:32:10;;;;;;;8.75;6.10;;;;;;;3.38;71.92;94686.41;5013870;28;20077;-74
2021/11/28 09:34:38;;;;;;;8.05;5.68;;;;;;;3.49;71.58;94692.84;5015855;28;20460;-73
2021/11/28 09:37:08;;;;;;;9.27;5.05;;;;;;;3.56;71.49;94688.53;5029100;23;20649;-75
2021/11/28 09:39:37;;;;;;;6.45;4.90;;;;;;;3.63;71.58;94686.00;4992967;28;20050;-73
2021/11/28 09:42:09;;;;;;;6.95;4.88;;;;;;;3.70;71.83;94686.88;4993125;28;20427;-73
2021/11/28 09:44:40;;;;;;;11.70;4.43;;;;;;;3.75;71.57;94683.75;4992943;28;20058;-73
2021/11/28 09:47:10;;;;;;;5.65;3.88;;;;;;;3.78;72.19;94691.09;4993390;28;20054;-73
2021/11/28 09:49:40;;;;;;;6.93;3.58;;;;;;;3.77;71.17;94686.94;4993136;28;20120;-73
2021/11/28 09:52:11;;;;;;;5.03;3.78;;;;;;;3.77;71.12;94690.31;4993164;28;20054;-74
2021/11/28 09:54:42;;;;;;;4.38;3.15;;;;;;;3.76;71.66;94685.31;4993360;28;20050;-73
2021/11/28 09:57:12;;;;;;;4.68;3.35;;;;;;;3.74;70.48;94682.13;4991882;28;20081;-75
2021/11/28 09:59:42;;;;;;;5.85;3.60;;;;;;;3.74;71.44;94682.13;4993240;28;20057;-74
2021/11/28 10:02:14;;;;;;;4.50;3.33;;;;;;;3.73;70.46;94671.03;4993161;28;20471;-74
2021/11/28 10:04:42;;;;;;;4.55;3.58;;;;;;;3.74;70.92;94671.81;4993354;28;20054;-73
2021/11/28 10:07:12;;;;;;;6.78;3.88;;;;;;;3.72;71.59;94685.72;4992350;28;20050;-73
2021/11/28 10:09:40;;;;;;;5.32;3.80;;;;;;;3.68;71.45;94669.00;4992741;28;20054;-73
2021/11/28 10:12:22;;;;;;;4.22;3.55;;;;;;;3.71;71.21;94667.84;4993223;28;20416;-72
2021/11/28 10:14:53;;;;;;;6.43;3.60;;;;;;;3.72;71.68;94675.41;4993228;28;20104;-74
2021/11/28 10:17:25;;;;;;;5.95;3.63;;;;;;;3.74;70.75;94672.63;4992581;28;20532;-73
2021/11/28 10:19:52;;;;;;;9.17;4.70;;;;;;;3.76;70.49;94667.28;4993348;28;20046;-73
2021/11/28 10:22:20;;;;;;;4.63;3.30;;;;;;;3.77;70.39;94666.31;4993056;28;20291;-74
2021/11/28 10:24:54;;;;;;;4.57;3.67;;;;;;;3.76;70.83;94665.50;4993006;28;20070;-74
2021/11/28 10:27:32;;;;;;;43.10;23.75;;;;;;;3.78;70.42;94673.03;4992384;28;20046;-73
2021/11/28 10:30:01;;;;;;;11.50;7.25;;;;;;;3.76;69.59;94668.09;4992887;28;20057;-75
2021/11/28 10:32:29;;;;;;;8.45;5.13;;;;;;;3.76;69.27;94664.69;4992473;28;20054;-74
2021/11/28 10:34:56;;;;;;;11.48;6.75;;;;;;;3.76;70.32;94665.50;4994170;28;20058;-74
2021/11/28 10:37:25;;;;;;;7.88;4.15;;;;;;;3.78;69.42;94667.88;4992952;28;20073;-76
2021/11/28 10:39:58;;;;;;;4.93;3.28;;;;;;;3.77;69.16;94663.72;4992627;28;20443;-74
2021/11/28 10:42:27;;;;;;;3.75;2.92;;;;;;;3.76;68.86;94659.53;4993496;28;20051;-74
2021/11/28 10:45:04;;;;;;;5.70;4.05;;;;;;;3.69;67.29;94655.13;4992842;28;20054;-73
2021/11/28 10:47:38;;;;;;;4.05;3.47;;;;;;;3.67;67.47;94657.13;4992258;28;20046;-73
2021/11/28 10:50:08;;;;;;;3.38;2.60;;;;;;;3.70;69.02;94650.78;4992981;28;20057;-73
2021/11/28 10:52:36;;;;;;;3.92;2.60;;;;;;;3.74;69.24;94653.78;4993026;28;20051;-74
2021/11/28 10:55:11;;;;;;;5.18;2.70;;;;;;;3.75;67.41;94648.44;4992596;28;20523;-72
2021/11/28 10:57:39;;;;;;;5.55;2.75;;;;;;;3.72;68.32;94651.41;4992589;28;20050;-74
2021/11/28 11:00:11;;;;;;;5.32;2.83;;;;;;;3.73;68.98;94652.97;4992501;28;20050;-75
2021/11/28 11:02:40;;;;;;;5.60;3.22;;;;;;;3.76;69.86;94657.78;4992606;28;20500;-74
2021/11/28 11:05:11;;;;;;;23.70;13.82;;;;;;;3.81;70.58;94657.22;4973069;28;20057;-73
2021/11/28 11:07:53;;;;;;;10.18;5.72;;;;;;;3.82;69.51;94659.59;4973105;28;20436;-73
2021/11/28 11:10:25;;;;;;;8.38;4.57;;;;;;;3.84;69.15;94655.03;4976815;28;20109;-72
2021/11/28 11:12:53;;;;;;;4.40;3.00;;;;;;;3.85;69.95;94661.03;4976556;28;20051;-74
2021/11/28 11:15:37;;;;;;;3.15;2.30;;;;;;;3.87;69.80;94667.56;4976597;28;20501;-73
2021/11/28 11:18:06;;;;;;;3.03;2.22;;;;;;;3.89;70.37;94660.44;4976408;28;20062;-73
2021/11/28 11:20:37;;;;;;;3.55;2.38;;;;;;;3.89;70.82;94664.78;4976644;28;20532;-73
2021/11/28 11:23:05;;;;;;;2.53;1.90;;;;;;;3.89;70.58;94659.63;4976843;28;20054;-75
2021/11/28 11:25:35;;;;;;;3.58;2.60;;;;;;;3.89;70.45;94664.78;4976694;28;20146;-78
2021/11/28 11:28:10;;;;;;;4.40;2.78;;;;;;;3.90;70.43;94663.81;4976561;28;20047;-76
2021/11/28 11:30:40;;;;;;;3.70;2.35;;;;;;;3.90;70.48;94661.25;4976646;28;20053;-75
2021/11/28 11:33:08;;;;;;;8.32;2.83;;;;;;;3.88;69.06;94656.25;4981696;28;20046;-76
2021/11/28 11:35:41;;;;;;;4.70;2.65;;;;;;;3.86;69.82;94654.84;4997289;28;20047;-75
2021/11/28 11:38:11;;;;;;;4.78;2.10;;;;;;;3.83;68.47;94657.81;4995423;28;20061;-74
2021/11/28 11:40:38;;;;;;;3.17;2.50;;;;;;;3.80;69.25;94656.41;4996268;28;20061;-74
2021/11/28 11:43:06;;;;;;;4.10;2.88;;;;;;;3.83;70.33;94660.41;4995691;28;20053;-75
2021/11/28 11:45:36;;;;;;;4.63;3.10;;;;;;;3.89;70.93;94667.38;4995850;28;20051;-74
2021/11/28 11:48:07;;;;;;;5.40;3.53;;;;;;;3.92;71.33;94664.44;4995368;28;20050;-73
2021/11/28 11:50:36;;;;;;;3.25;2.40;;;;;;;3.91;71.35;94662.81;4995544;28;20054;-75